Airfield :
LOGIN :

Register | Disclaimer

   EN    FR    IT 

 










Legend :    VFR   Marginal VFR   IFR   Intensive IFR   Very Intensive IFR
Visi :
Ceiling :
>= 8 km
>= 3000ft
5 to 8 km
1000 to 3000 ft
1500m to 5 km
500 to 1000 ft
800 to 1500m
200 to 500 ft
< 800m
< 200 ft
Symbols :   Thunderstorms  Fog  Heavy snow  Heavy precipitations  Wind > 20 kt
SIGMETs :     Misc.  Thunderstorms  Icing  Turbulence  Mountain Waves  Volcanic Ashes







- Airport Elevation : 1273 ft
- IATA code : LJU


LJLJ - Ljubljana

CURRENT METAR :
  • 180500Z 25001KT 5000 BR FEW001 BKN100 12/11 Q1018 NOSIG

EXPIRED METARs :
  • 180430Z 00000KT 5000 BR SCT001 BKN085 12/12 Q1018 NOSIG
  • 180400Z VRB01KT 7000 FEW001 BKN085 12/11 Q1018 NOSIG
  • 180330Z 28001KT 7000 FEW001 BKN110 12/11 Q1018 NOSIG
  • 180300Z 29002KT 7000 VCFG FEW035 BKN110 12/11 Q1018 NOSIG
  • 180230Z VRB01KT 6000 VCFG FEW035 BKN110 12/11 Q1019 NOSIG

TAF TAF LJLJ
Valid from the 18 at 03:00 until the 19 at 03:00 UTC


180200Z 1803/1903 VRB02KT 9999 FEW030 BKN100
TEMPO 1803/1808 3500 BR SCT001 SCT100
PROB30
TEMPO 1803/1808 0600 FG BKN001
BECMG 1808/1811 12005KT FEW040 SCT090
TEMPO 1811/1818 SCT040 BKN090
BECMG 1818/1820 30003KT
No reported NOTAMs for that airfield.



MET'MAP, your aeronautical weather chart ! - Copyright ORBIFLY December 2007 - Disclaimer

ORBIFLY MET'MAP TEAM :

Programming & Development : Alexandra Zaïnal
Concept & Development : Baudouin d'Aumeries
Co-Development & Prog : Marc-Olivier Méhu
Technical & hardware support : Manuel Goepfert

Contact : metmap@orbifly.com




SOURCES & CREDITS :

   NOAA